sensor_id;sensor_type;location;lat;lon;timestamp;P1;durP1;ratioP1;P2;durP2;ratioP2
76393;SDS011;65216;51.090;-115.352;2023-02-27T00:00:19;9.80;;;1.40;;
76393;SDS011;65216;51.090;-115.352;2023-02-27T00:02:49;9.30;;;1.20;;
76393;SDS011;65216;51.090;-115.352;2023-02-27T00:05:20;11.60;;;1.70;;
76393;SDS011;65216;51.090;-115.352;2023-02-27T00:07:47;8.80;;;1.70;;
76393;SDS011;65216;51.090;-115.352;2023-02-27T00:10:15;10.30;;;1.30;;
76393;SDS011;65216;51.090;-115.352;2023-02-27T00:12:43;10.60;;;1.60;;
76393;SDS011;65216;51.090;-115.352;2023-02-27T00:15:15;13.00;;;1.50;;
76393;SDS011;65216;51.090;-115.352;2023-02-27T00:17:49;15.30;;;1.60;;
76393;SDS011;65216;51.090;-115.352;2023-02-27T00:20:18;18.60;;;1.70;;
76393;SDS011;65216;51.090;-115.352;2023-02-27T00:22:46;13.10;;;1.50;;
76393;SDS011;65216;51.090;-115.352;2023-02-27T00:25:14;11.00;;;1.50;;
76393;SDS011;65216;51.090;-115.352;2023-02-27T00:27:44;10.60;;;1.50;;
76393;SDS011;65216;51.090;-115.352;2023-02-27T00:30:15;14.90;;;1.60;;
76393;SDS011;65216;51.090;-115.352;2023-02-27T00:32:45;10.30;;;1.60;;
76393;SDS011;65216;51.090;-115.352;2023-02-27T00:35:13;11.80;;;1.60;;
76393;SDS011;65216;51.090;-115.352;2023-02-27T00:37:40;7.50;;;1.10;;
76393;SDS011;65216;51.090;-115.352;2023-02-27T00:40:08;12.10;;;1.50;;
76393;SDS011;65216;51.090;-115.352;2023-02-27T00:42:36;7.90;;;1.30;;
76393;SDS011;65216;51.090;-115.352;2023-02-27T00:45:04;13.60;;;1.40;;
76393;SDS011;65216;51.090;-115.352;2023-02-27T00:47:38;7.20;;;1.10;;
76393;SDS011;65216;51.090;-115.352;2023-02-27T00:50:05;12.80;;;1.50;;
76393;SDS011;65216;51.090;-115.352;2023-02-27T00:52:36;10.50;;;1.40;;
76393;SDS011;65216;51.090;-115.352;2023-02-27T00:55:04;9.90;;;1.30;;
76393;SDS011;65216;51.090;-115.352;2023-02-27T00:57:31;15.20;;;1.60;;
76393;SDS011;65216;51.090;-115.352;2023-02-27T00:59:59;7.20;;;1.30;;
76393;SDS011;65216;51.090;-115.352;2023-02-27T01:02:27;10.90;;;1.10;;
76393;SDS011;65216;51.090;-115.352;2023-02-27T01:04:54;11.20;;;1.50;;
76393;SDS011;65216;51.090;-115.352;2023-02-27T01:07:22;9.30;;;1.20;;
76393;SDS011;65216;51.090;-115.352;2023-02-27T01:09:49;13.20;;;1.60;;
76393;SDS011;65216;51.090;-115.352;2023-02-27T01:12:16;10.60;;;1.40;;
76393;SDS011;65216;51.090;-115.352;2023-02-27T01:14:44;12.80;;;1.40;;
76393;SDS011;65216;51.090;-115.352;2023-02-27T01:17:11;12.40;;;1.40;;
76393;SDS011;65216;51.090;-115.352;2023-02-27T01:19:39;11.90;;;1.60;;
76393;SDS011;65216;51.090;-115.352;2023-02-27T01:22:06;11.50;;;1.20;;
76393;SDS011;65216;51.090;-115.352;2023-02-27T01:24:34;14.80;;;1.50;;
76393;SDS011;65216;51.090;-115.352;2023-02-27T01:27:01;10.70;;;1.10;;
76393;SDS011;65216;51.090;-115.352;2023-02-27T01:29:31;10.60;;;1.30;;
76393;SDS011;65216;51.090;-115.352;2023-02-27T01:32:02;11.10;;;1.50;;
76393;SDS011;65216;51.090;-115.352;2023-02-27T01:34:29;9.60;;;1.20;;
76393;SDS011;65216;51.090;-115.352;2023-02-27T01:36:57;9.40;;;1.40;;
76393;SDS011;65216;51.090;-115.352;2023-02-27T01:39:27;15.10;;;1.70;;
76393;SDS011;65216;51.090;-115.352;2023-02-27T01:41:55;16.60;;;1.70;;
76393;SDS011;65216;51.090;-115.352;2023-02-27T01:44:26;14.10;;;1.40;;
76393;SDS011;65216;51.090;-115.352;2023-02-27T01:46:55;14.00;;;1.90;;
76393;SDS011;65216;51.090;-115.352;2023-02-27T01:49:33;15.70;;;1.80;;
76393;SDS011;65216;51.090;-115.352;2023-02-27T01:52:05;10.70;;;1.40;;
76393;SDS011;65216;51.090;-115.352;2023-02-27T01:54:39;19.30;;;1.80;;
76393;SDS011;65216;51.090;-115.352;2023-02-27T01:57:08;16.20;;;1.70;;
76393;SDS011;65216;51.090;-115.352;2023-02-27T01:59:37;15.00;;;2.40;;
76393;SDS011;65216;51.090;-115.352;2023-02-27T02:02:37;24.60;;;2.20;;
76393;SDS011;65216;51.090;-115.352;2023-02-27T02:05:10;17.70;;;1.90;;
76393;SDS011;65216;51.090;-115.352;2023-02-27T02:07:39;13.30;;;1.60;;
76393;SDS011;65216;51.090;-115.352;2023-02-27T02:10:10;15.00;;;2.00;;
76393;SDS011;65216;51.090;-115.352;2023-02-27T02:12:41;15.70;;;1.90;;
76393;SDS011;65216;51.090;-115.352;2023-02-27T02:15:09;12.60;;;1.30;;
76393;SDS011;65216;51.090;-115.352;2023-02-27T02:27:30;15.90;;;2.30;;
76393;SDS011;65216;51.090;-115.352;2023-02-27T02:50:33;16.60;;;1.70;;
76393;SDS011;65216;51.090;-115.352;2023-02-27T02:53:24;17.00;;;1.60;;
76393;SDS011;65216;51.090;-115.352;2023-02-27T02:56:03;15.70;;;1.70;;
76393;SDS011;65216;51.090;-115.352;2023-02-27T02:58:56;17.90;;;1.70;;
76393;SDS011;65216;51.090;-115.352;2023-02-27T03:01:35;13.60;;;1.70;;
76393;SDS011;65216;51.090;-115.352;2023-02-27T03:04:29;16.80;;;2.20;;
76393;SDS011;65216;51.090;-115.352;2023-02-27T03:07:25;15.80;;;1.60;;
76393;SDS011;65216;51.090;-115.352;2023-02-27T03:13:02;13.10;;;1.50;;
76393;SDS011;65216;51.090;-115.352;2023-02-27T03:15:46;12.20;;;1.40;;
76393;SDS011;65216;51.090;-115.352;2023-02-27T03:18:33;9.50;;;1.40;;
76393;SDS011;65216;51.090;-115.352;2023-02-27T03:21:14;12.70;;;2.10;;
76393;SDS011;65216;51.090;-115.352;2023-02-27T03:23:52;11.90;;;1.50;;
76393;SDS011;65216;51.090;-115.352;2023-02-27T03:26:32;13.40;;;1.50;;
76393;SDS011;65216;51.090;-115.352;2023-02-27T03:29:11;9.20;;;1.30;;
76393;SDS011;65216;51.090;-115.352;2023-02-27T03:31:52;12.80;;;1.30;;
76393;SDS011;65216;51.090;-115.352;2023-02-27T03:34:43;13.50;;;1.40;;
76393;SDS011;65216;51.090;-115.352;2023-02-27T03:46:09;11.90;;;1.50;;
76393;SDS011;65216;51.090;-115.352;2023-02-27T03:48:41;10.70;;;1.30;;
76393;SDS011;65216;51.090;-115.352;2023-02-27T03:51:15;10.80;;;1.30;;
76393;SDS011;65216;51.090;-115.352;2023-02-27T03:56:50;13.80;;;1.60;;
76393;SDS011;65216;51.090;-115.352;2023-02-27T03:59:30;13.70;;;1.60;;
76393;SDS011;65216;51.090;-115.352;2023-02-27T04:02:00;15.90;;;1.50;;
76393;SDS011;65216;51.090;-115.352;2023-02-27T04:04:32;9.10;;;1.40;;
76393;SDS011;65216;51.090;-115.352;2023-02-27T04:07:37;5.40;;;1.20;;
76393;SDS011;65216;51.090;-115.352;2023-02-27T04:10:31;7.60;;;1.00;;
76393;SDS011;65216;51.090;-115.352;2023-02-27T04:16:29;5.70;;;0.90;;
76393;SDS011;65216;51.090;-115.352;2023-02-27T04:22:23;6.40;;;1.00;;
76393;SDS011;65216;51.090;-115.352;2023-02-27T04:33:36;5.00;;;1.00;;
76393;SDS011;65216;51.090;-115.352;2023-02-27T04:36:25;2.70;;;0.60;;
76393;SDS011;65216;51.090;-115.352;2023-02-27T04:42:10;3.90;;;0.80;;
76393;SDS011;65216;51.090;-115.352;2023-02-27T04:44:42;11.20;;;1.00;;
76393;SDS011;65216;51.090;-115.352;2023-02-27T04:47:15;6.60;;;1.00;;
76393;SDS011;65216;51.090;-115.352;2023-02-27T04:49:48;9.30;;;1.40;;
76393;SDS011;65216;51.090;-115.352;2023-02-27T04:52:34;7.00;;;1.00;;
76393;SDS011;65216;51.090;-115.352;2023-02-27T04:55:14;8.40;;;1.40;;
76393;SDS011;65216;51.090;-115.352;2023-02-27T04:58:17;3.90;;;0.70;;
76393;SDS011;65216;51.090;-115.352;2023-02-27T05:01:02;6.60;;;0.90;;
76393;SDS011;65216;51.090;-115.352;2023-02-27T05:03:42;7.10;;;0.70;;
76393;SDS011;65216;51.090;-115.352;2023-02-27T05:06:17;4.60;;;0.70;;
76393;SDS011;65216;51.090;-115.352;2023-02-27T05:12:13;4.00;;;0.50;;
76393;SDS011;65216;51.090;-115.352;2023-02-27T05:14:54;3.80;;;0.70;;
76393;SDS011;65216;51.090;-115.352;2023-02-27T05:17:35;3.60;;;0.70;;
76393;SDS011;65216;51.090;-115.352;2023-02-27T05:20:10;3.50;;;0.90;;
76393;SDS011;65216;51.090;-115.352;2023-02-27T05:23:03;2.00;;;0.50;;
76393;SDS011;65216;51.090;-115.352;2023-02-27T05:25:54;2.80;;;0.60;;
76393;SDS011;65216;51.090;-115.352;2023-02-27T05:28:45;4.20;;;0.60;;
76393;SDS011;65216;51.090;-115.352;2023-02-27T05:31:20;4.00;;;0.90;;
76393;SDS011;65216;51.090;-115.352;2023-02-27T05:37:02;2.80;;;0.50;;
76393;SDS011;65216;51.090;-115.352;2023-02-27T05:39:38;4.30;;;0.60;;
76393;SDS011;65216;51.090;-115.352;2023-02-27T05:42:14;3.90;;;0.80;;
76393;SDS011;65216;51.090;-115.352;2023-02-27T05:45:08;2.40;;;0.70;;
76393;SDS011;65216;51.090;-115.352;2023-02-27T05:47:48;2.70;;;0.50;;
76393;SDS011;65216;51.090;-115.352;2023-02-27T05:50:31;2.10;;;0.40;;
76393;SDS011;65216;51.090;-115.352;2023-02-27T05:53:05;2.50;;;0.60;;
76393;SDS011;65216;51.090;-115.352;2023-02-27T05:56:02;2.10;;;0.50;;
76393;SDS011;65216;51.090;-115.352;2023-02-27T05:58:59;1.40;;;0.50;;
76393;SDS011;65216;51.090;-115.352;2023-02-27T06:01:33;1.40;;;0.50;;
76393;SDS011;65216;51.090;-115.352;2023-02-27T06:04:01;1.70;;;0.40;;
76393;SDS011;65216;51.090;-115.352;2023-02-27T06:06:38;1.60;;;0.50;;
76393;SDS011;65216;51.090;-115.352;2023-02-27T06:09:08;1.80;;;0.50;;
76393;SDS011;65216;51.090;-115.352;2023-02-27T06:11:35;2.30;;;0.40;;
76393;SDS011;65216;51.090;-115.352;2023-02-27T06:14:02;2.40;;;0.50;;
76393;SDS011;65216;51.090;-115.352;2023-02-27T06:16:30;1.60;;;0.40;;
76393;SDS011;65216;51.090;-115.352;2023-02-27T06:18:57;2.30;;;0.40;;
76393;SDS011;65216;51.090;-115.352;2023-02-27T06:21:30;1.30;;;0.40;;
76393;SDS011;65216;51.090;-115.352;2023-02-27T06:23:57;1.60;;;0.20;;
76393;SDS011;65216;51.090;-115.352;2023-02-27T06:26:25;0.60;;;0.20;;
76393;SDS011;65216;51.090;-115.352;2023-02-27T06:28:52;0.80;;;0.30;;
76393;SDS011;65216;51.090;-115.352;2023-02-27T06:31:20;3.00;;;0.50;;
76393;SDS011;65216;51.090;-115.352;2023-02-27T06:33:48;3.20;;;0.60;;
76393;SDS011;65216;51.090;-115.352;2023-02-27T06:36:15;2.10;;;0.40;;
76393;SDS011;65216;51.090;-115.352;2023-02-27T06:38:43;2.20;;;0.50;;
76393;SDS011;65216;51.090;-115.352;2023-02-27T06:41:14;4.00;;;0.80;;
76393;SDS011;65216;51.090;-115.352;2023-02-27T06:43:41;5.90;;;0.60;;
76393;SDS011;65216;51.090;-115.352;2023-02-27T06:46:08;3.10;;;0.60;;
76393;SDS011;65216;51.090;-115.352;2023-02-27T06:48:36;3.50;;;0.80;;
76393;SDS011;65216;51.090;-115.352;2023-02-27T06:51:03;3.90;;;0.80;;
76393;SDS011;65216;51.090;-115.352;2023-02-27T06:53:31;5.90;;;0.70;;
76393;SDS011;65216;51.090;-115.352;2023-02-27T06:55:58;7.20;;;1.50;;
76393;SDS011;65216;51.090;-115.352;2023-02-27T06:58:26;11.30;;;1.80;;
76393;SDS011;65216;51.090;-115.352;2023-02-27T07:00:53;10.60;;;1.80;;
76393;SDS011;65216;51.090;-115.352;2023-02-27T07:03:20;13.20;;;1.90;;
76393;SDS011;65216;51.090;-115.352;2023-02-27T07:05:51;8.20;;;1.40;;
76393;SDS011;65216;51.090;-115.352;2023-02-27T07:08:18;7.90;;;1.40;;
76393;SDS011;65216;51.090;-115.352;2023-02-27T07:10:46;9.20;;;1.30;;
76393;SDS011;65216;51.090;-115.352;2023-02-27T07:13:15;8.00;;;1.30;;
76393;SDS011;65216;51.090;-115.352;2023-02-27T07:15:45;4.60;;;1.30;;
76393;SDS011;65216;51.090;-115.352;2023-02-27T07:18:12;6.60;;;1.20;;
76393;SDS011;65216;51.090;-115.352;2023-02-27T07:20:40;7.50;;;1.00;;
76393;SDS011;65216;51.090;-115.352;2023-02-27T07:23:14;4.70;;;1.00;;
76393;SDS011;65216;51.090;-115.352;2023-02-27T07:25:44;6.60;;;1.00;;
76393;SDS011;65216;51.090;-115.352;2023-02-27T07:28:12;6.50;;;0.90;;
76393;SDS011;65216;51.090;-115.352;2023-02-27T07:30:43;6.40;;;1.10;;
76393;SDS011;65216;51.090;-115.352;2023-02-27T07:33:10;7.40;;;1.10;;
76393;SDS011;65216;51.090;-115.352;2023-02-27T07:35:38;5.50;;;1.30;;
76393;SDS011;65216;51.090;-115.352;2023-02-27T07:38:05;4.30;;;0.80;;
76393;SDS011;65216;51.090;-115.352;2023-02-27T07:40:35;3.00;;;0.70;;
76393;SDS011;65216;51.090;-115.352;2023-02-27T07:43:03;3.10;;;0.90;;
76393;SDS011;65216;51.090;-115.352;2023-02-27T07:45:35;2.50;;;0.70;;
76393;SDS011;65216;51.090;-115.352;2023-02-27T07:48:02;2.90;;;0.80;;
76393;SDS011;65216;51.090;-115.352;2023-02-27T07:50:32;3.50;;;0.80;;
76393;SDS011;65216;51.090;-115.352;2023-02-27T07:53:03;3.50;;;0.80;;
76393;SDS011;65216;51.090;-115.352;2023-02-27T07:55:32;2.40;;;0.60;;
76393;SDS011;65216;51.090;-115.352;2023-02-27T07:58:03;2.70;;;0.70;;
76393;SDS011;65216;51.090;-115.352;2023-02-27T08:00:30;2.90;;;0.60;;
76393;SDS011;65216;51.090;-115.352;2023-02-27T08:02:57;2.60;;;0.60;;
76393;SDS011;65216;51.090;-115.352;2023-02-27T08:05:28;1.10;;;0.40;;
76393;SDS011;65216;51.090;-115.352;2023-02-27T08:07:58;2.80;;;0.50;;
76393;SDS011;65216;51.090;-115.352;2023-02-27T08:10:25;2.40;;;0.70;;
76393;SDS011;65216;51.090;-115.352;2023-02-27T08:12:53;1.90;;;0.50;;
76393;SDS011;65216;51.090;-115.352;2023-02-27T08:15:20;3.20;;;0.60;;
76393;SDS011;65216;51.090;-115.352;2023-02-27T08:17:48;1.40;;;0.60;;
76393;SDS011;65216;51.090;-115.352;2023-02-27T08:20:17;0.60;;;0.30;;
76393;SDS011;65216;51.090;-115.352;2023-02-27T08:22:48;1.80;;;0.80;;
76393;SDS011;65216;51.090;-115.352;2023-02-27T08:25:15;2.90;;;0.60;;
76393;SDS011;65216;51.090;-115.352;2023-02-27T08:27:43;2.00;;;0.60;;
76393;SDS011;65216;51.090;-115.352;2023-02-27T08:30:11;1.80;;;0.40;;
76393;SDS011;65216;51.090;-115.352;2023-02-27T08:32:38;1.50;;;0.50;;
76393;SDS011;65216;51.090;-115.352;2023-02-27T08:35:09;1.60;;;0.50;;
76393;SDS011;65216;51.090;-115.352;2023-02-27T08:37:36;1.40;;;0.20;;
76393;SDS011;65216;51.090;-115.352;2023-02-27T08:42:42;0.70;;;0.30;;
76393;SDS011;65216;51.090;-115.352;2023-02-27T08:45:10;0.80;;;0.30;;
76393;SDS011;65216;51.090;-115.352;2023-02-27T08:47:37;0.60;;;0.30;;
76393;SDS011;65216;51.090;-115.352;2023-02-27T08:50:05;1.40;;;0.50;;
76393;SDS011;65216;51.090;-115.352;2023-02-27T08:52:33;0.60;;;0.30;;
76393;SDS011;65216;51.090;-115.352;2023-02-27T08:55:00;0.80;;;0.40;;
76393;SDS011;65216;51.090;-115.352;2023-02-27T08:57:27;0.80;;;0.40;;
76393;SDS011;65216;51.090;-115.352;2023-02-27T08:59:55;0.70;;;0.30;;
76393;SDS011;65216;51.090;-115.352;2023-02-27T09:02:25;3.10;;;0.50;;
76393;SDS011;65216;51.090;-115.352;2023-02-27T09:04:55;0.90;;;0.40;;
76393;SDS011;65216;51.090;-115.352;2023-02-27T09:07:22;0.70;;;0.30;;
76393;SDS011;65216;51.090;-115.352;2023-02-27T09:09:49;1.30;;;0.40;;
76393;SDS011;65216;51.090;-115.352;2023-02-27T09:12:17;1.60;;;0.40;;
76393;SDS011;65216;51.090;-115.352;2023-02-27T09:14:44;1.50;;;0.60;;
76393;SDS011;65216;51.090;-115.352;2023-02-27T09:17:11;1.20;;;0.60;;
76393;SDS011;65216;51.090;-115.352;2023-02-27T09:19:39;1.00;;;0.30;;
76393;SDS011;65216;51.090;-115.352;2023-02-27T09:22:08;0.70;;;0.20;;
76393;SDS011;65216;51.090;-115.352;2023-02-27T09:24:36;1.70;;;0.30;;
76393;SDS011;65216;51.090;-115.352;2023-02-27T09:27:03;0.70;;;0.30;;
76393;SDS011;65216;51.090;-115.352;2023-02-27T09:29:31;1.00;;;0.40;;
76393;SDS011;65216;51.090;-115.352;2023-02-27T09:31:58;1.20;;;0.40;;
76393;SDS011;65216;51.090;-115.352;2023-02-27T09:34:26;1.80;;;0.50;;
76393;SDS011;65216;51.090;-115.352;2023-02-27T09:37:00;1.20;;;0.40;;
76393;SDS011;65216;51.090;-115.352;2023-02-27T09:39:28;0.90;;;0.50;;
76393;SDS011;65216;51.090;-115.352;2023-02-27T09:42:02;0.50;;;0.20;;
76393;SDS011;65216;51.090;-115.352;2023-02-27T09:44:43;0.90;;;0.30;;
76393;SDS011;65216;51.090;-115.352;2023-02-27T09:47:34;2.10;;;0.40;;
76393;SDS011;65216;51.090;-115.352;2023-02-27T09:50:30;1.20;;;0.20;;
76393;SDS011;65216;51.090;-115.352;2023-02-27T09:53:13;0.30;;;0.30;;
76393;SDS011;65216;51.090;-115.352;2023-02-27T09:59:12;0.60;;;0.30;;
76393;SDS011;65216;51.090;-115.352;2023-02-27T10:12:05;0.50;;;0.20;;
76393;SDS011;65216;51.090;-115.352;2023-02-27T10:15:03;1.20;;;0.40;;
76393;SDS011;65216;51.090;-115.352;2023-02-27T10:17:48;0.70;;;0.20;;
76393;SDS011;65216;51.090;-115.352;2023-02-27T10:20:26;1.80;;;0.20;;
76393;SDS011;65216;51.090;-115.352;2023-02-27T10:22:56;0.90;;;0.30;;
76393;SDS011;65216;51.090;-115.352;2023-02-27T10:25:36;0.70;;;0.40;;
76393;SDS011;65216;51.090;-115.352;2023-02-27T10:28:20;0.10;;;0.10;;
76393;SDS011;65216;51.090;-115.352;2023-02-27T10:30:51;0.60;;;0.20;;
76393;SDS011;65216;51.090;-115.352;2023-02-27T10:33:34;0.50;;;0.20;;
76393;SDS011;65216;51.090;-115.352;2023-02-27T10:36:04;0.90;;;0.30;;
76393;SDS011;65216;51.090;-115.352;2023-02-27T10:38:46;0.30;;;0.10;;
76393;SDS011;65216;51.090;-115.352;2023-02-27T10:41:25;0.50;;;0.20;;
76393;SDS011;65216;51.090;-115.352;2023-02-27T10:43:57;0.60;;;0.20;;
76393;SDS011;65216;51.090;-115.352;2023-02-27T10:46:31;0.50;;;0.20;;
76393;SDS011;65216;51.090;-115.352;2023-02-27T10:49:18;0.70;;;0.30;;
76393;SDS011;65216;51.090;-115.352;2023-02-27T10:52:11;0.70;;;0.30;;
76393;SDS011;65216;51.090;-115.352;2023-02-27T10:54:41;0.20;;;0.10;;
76393;SDS011;65216;51.090;-115.352;2023-02-27T10:57:29;0.70;;;0.30;;
76393;SDS011;65216;51.090;-115.352;2023-02-27T11:00:05;1.10;;;0.50;;
76393;SDS011;65216;51.090;-115.352;2023-02-27T11:02:49;0.60;;;0.30;;
76393;SDS011;65216;51.090;-115.352;2023-02-27T11:05:34;1.80;;;0.50;;
76393;SDS011;65216;51.090;-115.352;2023-02-27T11:11:13;0.90;;;0.40;;
76393;SDS011;65216;51.090;-115.352;2023-02-27T11:13:44;1.00;;;0.30;;
76393;SDS011;65216;51.090;-115.352;2023-02-27T11:16:13;0.40;;;0.20;;
76393;SDS011;65216;51.090;-115.352;2023-02-27T11:18:48;0.70;;;0.30;;
76393;SDS011;65216;51.090;-115.352;2023-02-27T11:21:29;1.60;;;0.30;;
76393;SDS011;65216;51.090;-115.352;2023-02-27T11:24:04;0.60;;;0.30;;
76393;SDS011;65216;51.090;-115.352;2023-02-27T11:26:55;0.70;;;0.20;;
76393;SDS011;65216;51.090;-115.352;2023-02-27T11:29:29;0.40;;;0.30;;
76393;SDS011;65216;51.090;-115.352;2023-02-27T11:31:59;0.60;;;0.20;;
76393;SDS011;65216;51.090;-115.352;2023-02-27T11:34:35;1.20;;;0.30;;
76393;SDS011;65216;51.090;-115.352;2023-02-27T11:37:28;0.50;;;0.40;;
76393;SDS011;65216;51.090;-115.352;2023-02-27T11:40:17;1.20;;;0.40;;
76393;SDS011;65216;51.090;-115.352;2023-02-27T11:42:52;0.30;;;0.20;;
76393;SDS011;65216;51.090;-115.352;2023-02-27T11:48:39;0.90;;;0.20;;
76393;SDS011;65216;51.090;-115.352;2023-02-27T12:02:58;0.50;;;0.10;;
76393;SDS011;65216;51.090;-115.352;2023-02-27T12:05:39;1.70;;;0.20;;
76393;SDS011;65216;51.090;-115.352;2023-02-27T12:13:39;0.00;;;0.00;;
76393;SDS011;65216;51.090;-115.352;2023-02-27T12:19:34;0.60;;;0.30;;
76393;SDS011;65216;51.090;-115.352;2023-02-27T12:22:35;1.00;;;0.20;;
76393;SDS011;65216;51.090;-115.352;2023-02-27T12:27:55;0.40;;;0.20;;
76393;SDS011;65216;51.090;-115.352;2023-02-27T12:30:55;0.60;;;0.30;;
76393;SDS011;65216;51.090;-115.352;2023-02-27T12:36:47;0.80;;;0.30;;
76393;SDS011;65216;51.090;-115.352;2023-02-27T12:39:24;0.60;;;0.20;;
76393;SDS011;65216;51.090;-115.352;2023-02-27T12:45:08;0.30;;;0.10;;
76393;SDS011;65216;51.090;-115.352;2023-02-27T13:05:29;0.80;;;0.10;;
76393;SDS011;65216;51.090;-115.352;2023-02-27T13:08:13;0.40;;;0.20;;
76393;SDS011;65216;51.090;-115.352;2023-02-27T13:11:20;0.20;;;0.20;;
76393;SDS011;65216;51.090;-115.352;2023-02-27T13:13:58;0.20;;;0.10;;
76393;SDS011;65216;51.090;-115.352;2023-02-27T13:16:42;0.10;;;0.00;;
76393;SDS011;65216;51.090;-115.352;2023-02-27T13:19:16;0.30;;;0.10;;
76393;SDS011;65216;51.090;-115.352;2023-02-27T13:25:22;1.10;;;0.20;;
76393;SDS011;65216;51.090;-115.352;2023-02-27T13:27:52;0.70;;;0.30;;
76393;SDS011;65216;51.090;-115.352;2023-02-27T13:30:34;0.30;;;0.20;;
76393;SDS011;65216;51.090;-115.352;2023-02-27T13:34:07;0.50;;;0.10;;
76393;SDS011;65216;51.090;-115.352;2023-02-27T13:44:59;0.30;;;0.10;;
76393;SDS011;65216;51.090;-115.352;2023-02-27T13:47:52;0.20;;;0.10;;
76393;SDS011;65216;51.090;-115.352;2023-02-27T13:52:48;1.10;;;0.20;;
76393;SDS011;65216;51.090;-115.352;2023-02-27T13:55:32;0.30;;;0.10;;
76393;SDS011;65216;51.090;-115.352;2023-02-27T13:58:01;0.30;;;0.20;;
76393;SDS011;65216;51.090;-115.352;2023-02-27T14:00:37;0.30;;;0.20;;
76393;SDS011;65216;51.090;-115.352;2023-02-27T14:03:22;1.50;;;0.40;;
76393;SDS011;65216;51.090;-115.352;2023-02-27T14:05:54;0.70;;;0.30;;
76393;SDS011;65216;51.090;-115.352;2023-02-27T14:08:27;0.20;;;0.20;;
76393;SDS011;65216;51.090;-115.352;2023-02-27T14:11:14;5.40;;;0.70;;
76393;SDS011;65216;51.090;-115.352;2023-02-27T14:24:46;11.10;;;1.40;;
76393;SDS011;65216;51.090;-115.352;2023-02-27T14:27:54;7.50;;;0.90;;
76393;SDS011;65216;51.090;-115.352;2023-02-27T14:30:41;5.20;;;0.90;;
76393;SDS011;65216;51.090;-115.352;2023-02-27T14:33:18;10.30;;;1.20;;
76393;SDS011;65216;51.090;-115.352;2023-02-27T14:36:15;7.80;;;1.10;;
76393;SDS011;65216;51.090;-115.352;2023-02-27T14:38:57;8.00;;;1.10;;
76393;SDS011;65216;51.090;-115.352;2023-02-27T14:41:49;9.30;;;1.50;;
76393;SDS011;65216;51.090;-115.352;2023-02-27T14:44:35;11.80;;;1.10;;
76393;SDS011;65216;51.090;-115.352;2023-02-27T14:47:04;5.00;;;0.90;;
76393;SDS011;65216;51.090;-115.352;2023-02-27T14:49:33;7.00;;;0.80;;
76393;SDS011;65216;51.090;-115.352;2023-02-27T14:52:40;7.40;;;0.80;;
76393;SDS011;65216;51.090;-115.352;2023-02-27T14:55:24;3.20;;;0.60;;
76393;SDS011;65216;51.090;-115.352;2023-02-27T14:57:58;3.50;;;0.80;;
76393;SDS011;65216;51.090;-115.352;2023-02-27T15:00:38;6.60;;;0.70;;
76393;SDS011;65216;51.090;-115.352;2023-02-27T15:05:48;5.40;;;0.80;;
76393;SDS011;65216;51.090;-115.352;2023-02-27T15:08:24;3.90;;;0.80;;
76393;SDS011;65216;51.090;-115.352;2023-02-27T15:10:55;2.40;;;0.60;;
76393;SDS011;65216;51.090;-115.352;2023-02-27T15:16:19;2.00;;;0.40;;
76393;SDS011;65216;51.090;-115.352;2023-02-27T15:18:55;2.30;;;0.50;;
76393;SDS011;65216;51.090;-115.352;2023-02-27T15:21:46;2.70;;;0.50;;
76393;SDS011;65216;51.090;-115.352;2023-02-27T15:24:23;6.30;;;0.80;;
76393;SDS011;65216;51.090;-115.352;2023-02-27T15:27:03;3.50;;;0.60;;
76393;SDS011;65216;51.090;-115.352;2023-02-27T15:29:50;2.10;;;0.50;;
76393;SDS011;65216;51.090;-115.352;2023-02-27T15:32:35;5.40;;;0.70;;
76393;SDS011;65216;51.090;-115.352;2023-02-27T15:35:27;3.70;;;0.60;;
76393;SDS011;65216;51.090;-115.352;2023-02-27T15:38:01;3.10;;;0.60;;
76393;SDS011;65216;51.090;-115.352;2023-02-27T15:40:31;2.30;;;0.50;;
76393;SDS011;65216;51.090;-115.352;2023-02-27T15:43:02;2.20;;;0.70;;
76393;SDS011;65216;51.090;-115.352;2023-02-27T15:45:33;1.70;;;0.40;;
76393;SDS011;65216;51.090;-115.352;2023-02-27T15:48:05;2.50;;;0.50;;
76393;SDS011;65216;51.090;-115.352;2023-02-27T15:50:36;2.30;;;0.70;;
76393;SDS011;65216;51.090;-115.352;2023-02-27T15:55:37;2.70;;;0.60;;
76393;SDS011;65216;51.090;-115.352;2023-02-27T15:58:19;3.00;;;0.60;;
76393;SDS011;65216;51.090;-115.352;2023-02-27T16:01:03;2.60;;;0.60;;
76393;SDS011;65216;51.090;-115.352;2023-02-27T16:03:45;4.90;;;0.70;;
76393;SDS011;65216;51.090;-115.352;2023-02-27T16:08:57;2.80;;;0.50;;
76393;SDS011;65216;51.090;-115.352;2023-02-27T16:11:28;5.00;;;0.70;;
76393;SDS011;65216;51.090;-115.352;2023-02-27T16:13:57;4.00;;;0.90;;
76393;SDS011;65216;51.090;-115.352;2023-02-27T16:16:35;4.50;;;0.60;;
76393;SDS011;65216;51.090;-115.352;2023-02-27T16:19:26;4.80;;;0.50;;
76393;SDS011;65216;51.090;-115.352;2023-02-27T16:24:41;3.00;;;0.80;;
76393;SDS011;65216;51.090;-115.352;2023-02-27T16:29:55;5.00;;;0.80;;
76393;SDS011;65216;51.090;-115.352;2023-02-27T16:32:29;4.10;;;0.90;;
76393;SDS011;65216;51.090;-115.352;2023-02-27T16:35:06;5.60;;;0.70;;
76393;SDS011;65216;51.090;-115.352;2023-02-27T16:37:45;3.70;;;0.50;;
76393;SDS011;65216;51.090;-115.352;2023-02-27T16:40:18;3.80;;;0.60;;
76393;SDS011;65216;51.090;-115.352;2023-02-27T16:42:50;4.60;;;0.60;;
76393;SDS011;65216;51.090;-115.352;2023-02-27T16:45:26;7.00;;;0.80;;
76393;SDS011;65216;51.090;-115.352;2023-02-27T16:47:58;7.90;;;0.80;;
76393;SDS011;65216;51.090;-115.352;2023-02-27T16:50:37;3.70;;;0.90;;
76393;SDS011;65216;51.090;-115.352;2023-02-27T16:53:07;6.80;;;1.00;;
76393;SDS011;65216;51.090;-115.352;2023-02-27T16:55:38;8.30;;;0.70;;
76393;SDS011;65216;51.090;-115.352;2023-02-27T16:58:13;4.80;;;0.70;;
76393;SDS011;65216;51.090;-115.352;2023-02-27T17:00:41;4.50;;;0.60;;
76393;SDS011;65216;51.090;-115.352;2023-02-27T17:03:08;4.10;;;0.90;;
76393;SDS011;65216;51.090;-115.352;2023-02-27T17:05:36;8.80;;;0.80;;
76393;SDS011;65216;51.090;-115.352;2023-02-27T17:08:03;3.10;;;0.60;;
76393;SDS011;65216;51.090;-115.352;2023-02-27T17:10:40;6.90;;;0.80;;
76393;SDS011;65216;51.090;-115.352;2023-02-27T17:13:11;5.00;;;0.60;;
76393;SDS011;65216;51.090;-115.352;2023-02-27T17:15:42;7.60;;;1.30;;
76393;SDS011;65216;51.090;-115.352;2023-02-27T17:18:12;5.80;;;0.90;;
76393;SDS011;65216;51.090;-115.352;2023-02-27T17:20:40;7.00;;;0.70;;
76393;SDS011;65216;51.090;-115.352;2023-02-27T17:23:11;4.60;;;0.60;;
76393;SDS011;65216;51.090;-115.352;2023-02-27T17:25:41;8.40;;;0.80;;
76393;SDS011;65216;51.090;-115.352;2023-02-27T17:28:09;5.90;;;0.90;;
76393;SDS011;65216;51.090;-115.352;2023-02-27T17:30:37;6.10;;;0.80;;
76393;SDS011;65216;51.090;-115.352;2023-02-27T17:33:05;3.70;;;0.70;;
76393;SDS011;65216;51.090;-115.352;2023-02-27T17:35:32;6.30;;;0.80;;
76393;SDS011;65216;51.090;-115.352;2023-02-27T17:38:00;5.80;;;0.90;;
76393;SDS011;65216;51.090;-115.352;2023-02-27T17:40:27;7.10;;;0.90;;
76393;SDS011;65216;51.090;-115.352;2023-02-27T17:42:55;7.50;;;0.90;;
76393;SDS011;65216;51.090;-115.352;2023-02-27T17:45:22;4.30;;;0.60;;
76393;SDS011;65216;51.090;-115.352;2023-02-27T17:47:53;10.20;;;0.80;;
76393;SDS011;65216;51.090;-115.352;2023-02-27T17:50:20;7.00;;;0.90;;